首页
METAR-TAF:

METAR-TAF

机场 :

苦盏机场

苦盏, 塔吉克斯坦

纬度: 40-12-55N, 经度: 069-41-41E, 海拔: 442米

当前天气观测

该预报发布于36分钟前的01:30 UTC
风速6节,风向
温度 25°C
湿度 39%
气压 1010 hPa
能见度10公里或以上

METAR: UTDL 310130Z 08003MPS 9999 NSC 25/10 Q1010 R08/CLRD70 NOSIG RMK QFE718/0958

时间: 07:06 (02:06 UTC)

预报

该预报发布于2小时和6分钟前的00:00 UTC
预报有效从31日的 01点(UTC)到 31日的 13点(UTC)
风速10节,风向
能见度10公里或以上
短暂存在
从 31日的 01点(UTC)到 31日的 03点(UTC)
风速4节,风向多变

TAF: UTDL 310000Z 3101/3113 08005MPS 9999 NSC TEMPO 3101/3103 VRB02MPS

超过4000个机场的气象观测和天气预报(METAR&TAF报告)。

可查询的气象台以黄色和红色小点在地图上表示。

将鼠标移到小点上方,可查看气象台名称。

然后点击查看天气观测和预报。

如需切换地图:点击带黑十字的绿色按钮放大地图;点击带横线的绿色按钮缩小地图;或者点击绿色箭头查看邻近地区的地图。


METAR-TAF: